Time;durP1;ratioP1;P1;durP2;ratioP2;P2;SDS_P1;SDS_P2;PMS_P1;PMS_P2;Temp;Humidity;BMP_temperature;BMP_pressure;BME280_temperature;BME280_humidity;BME280_pressure;Samples;Min_cycle;Max_cycle;Signal;HPM_P1;HPM_P2
2022/05/09 00:02:15;;;;;;;4.97;1.53;;;;;;;9.95;57.42;102132.25;5984179;28;20034;-65
2022/05/09 00:05:13;;;;;;;10.52;1.75;;;;;;;9.90;56.74;102123.78;5984579;28;20285;-66
2022/05/09 00:08:08;;;;;;;3.00;1.52;;;;;;;10.09;58.38;102118.03;5982281;28;20109;-68
2022/05/09 00:11:03;;;;;;;5.03;1.40;;;;;;;9.61;56.83;102127.63;5980428;28;20478;-67
2022/05/09 00:13:59;;;;;;;3.20;1.50;;;;;;;9.90;58.99;102122.94;5983753;28;20043;-65
2022/05/09 00:16:55;;;;;;;6.60;1.60;;;;;;;9.93;59.94;102136.84;5981691;28;20086;-66
2022/05/09 00:19:51;;;;;;;5.47;1.85;;;;;;;9.99;59.12;102123.16;5981381;28;20066;-65
2022/05/09 00:22:49;;;;;;;3.10;1.60;;;;;;;9.48;57.99;102127.59;5985828;28;20039;-66
2022/05/09 00:25:45;;;;;;;4.72;1.58;;;;;;;8.92;59.90;102133.16;5981089;28;20070;-66
2022/05/09 00:28:40;;;;;;;5.67;1.50;;;;;;;8.84;62.25;102127.53;5984923;28;20039;-67
2022/05/09 00:31:35;;;;;;;5.03;1.80;;;;;;;8.44;62.46;102133.69;5990626;28;20297;-67
2022/05/09 00:34:31;;;;;;;3.17;1.45;;;;;;;8.28;63.11;102132.03;5980224;28;20039;-66
2022/05/09 00:37:26;;;;;;;3.53;1.70;;;;;;;8.11;64.10;102134.00;5984211;28;20114;-65
2022/05/09 00:40:21;;;;;;;10.77;1.70;;;;;;;8.08;63.41;102129.75;5988132;28;20369;-67
2022/05/09 00:43:32;;;;;;;4.90;2.05;;;;;;;8.76;62.84;102133.34;5984984;28;20387;-67
2022/05/09 00:46:30;;;;;;;4.88;1.60;;;;;;;8.71;63.26;102134.56;5983478;28;20035;-67
2022/05/09 00:49:38;;;;;;;3.55;1.70;;;;;;;9.04;62.65;102140.31;5985889;28;20039;-67
2022/05/09 00:52:40;;;;;;;2.70;1.38;;;;;;;9.12;63.19;102126.56;5986729;28;20035;-67
2022/05/09 00:55:53;;;;;;;4.63;1.55;;;;;;;9.51;63.27;102137.97;5978469;28;20403;-67
2022/05/09 00:58:52;;;;;;;4.93;1.35;;;;;;;9.46;62.79;102134.78;5988867;28;20035;-66
2022/05/09 01:01:48;;;;;;;5.00;1.40;;;;;;;9.16;62.42;102131.56;5984672;28;20030;-66
2022/05/09 01:04:51;;;;;;;7.20;1.90;;;;;;;9.39;64.25;102141.47;5984861;28;20039;-66
2022/05/09 01:07:46;;;;;;;5.70;2.55;;;;;;;9.54;62.63;102137.75;5979596;28;20037;-66
2022/05/09 01:10:41;;;;;;;6.73;2.20;;;;;;;9.52;62.08;102136.19;5979111;28;20027;-66
2022/05/09 01:13:41;;;;;;;5.78;1.90;;;;;;;9.37;62.07;102137.22;5990133;28;20043;-65
2022/05/09 01:16:39;;;;;;;5.70;2.10;;;;;;;8.97;63.49;102137.22;5983756;28;20038;-67
2022/05/09 01:19:38;;;;;;;6.05;1.42;;;;;;;9.34;63.42;102140.06;5971087;28;20046;-67
2022/05/09 01:22:35;;;;;;;4.68;1.90;;;;;;;9.41;63.37;102133.41;5979928;28;20042;-67
2022/05/09 01:25:32;;;;;;;5.55;2.05;;;;;;;9.33;63.07;102131.28;5979902;28;20074;-67
2022/05/09 01:28:27;;;;;;;6.47;1.50;;;;;;;9.58;62.30;102133.97;5983010;28;20423;-67
2022/05/09 01:31:23;;;;;;;5.15;1.95;;;;;;;9.28;63.10;102125.44;5983416;28;20039;-66
2022/05/09 01:34:18;;;;;;;4.67;1.50;;;;;;;9.32;62.97;102129.56;5984898;28;20031;-66
2022/05/09 01:37:15;;;;;;;7.03;1.65;;;;;;;9.12;63.49;102134.50;5978666;28;20363;-65
2022/05/09 01:40:10;;;;;;;4.40;1.70;;;;;;;9.02;62.59;102139.56;5977527;28;20039;-67
2022/05/09 01:43:05;;;;;;;7.10;2.13;;;;;;;9.11;63.14;102127.50;5980309;28;20510;-65
2022/05/09 01:46:07;;;;;;;3.07;1.43;;;;;;;8.99;62.31;102134.50;5991359;28;20286;-66
2022/05/09 01:52:16;;;;;;;10.60;1.75;;;;;;;8.99;62.98;102130.00;5988216;28;20039;-66
2022/05/09 01:55:12;;;;;;;8.95;1.98;;;;;;;8.93;62.86;102129.59;5979885;28;20067;-67
2022/05/09 01:58:07;;;;;;;7.38;2.25;;;;;;;8.60;63.04;102139.69;5988770;28;20146;-66
2022/05/09 02:01:03;;;;;;;2.97;1.43;;;;;;;8.28;63.72;102139.97;5984707;28;20381;-65
2022/05/09 02:03:59;;;;;;;5.75;1.70;;;;;;;8.44;64.33;102133.69;5979884;28;20094;-67
2022/05/09 02:06:55;;;;;;;6.53;1.83;;;;;;;8.62;64.31;102135.16;5992994;28;20059;-66
2022/05/09 02:09:50;;;;;;;5.93;1.88;;;;;;;8.78;64.65;102141.16;5992720;28;20046;-67
2022/05/09 02:12:45;;;;;;;4.95;2.28;;;;;;;8.59;64.31;102141.50;5992040;28;20039;-65
2022/05/09 02:15:41;;;;;;;4.27;1.50;;;;;;;8.37;66.37;102138.50;5989472;28;20034;-65
2022/05/09 02:18:37;;;;;;;4.40;1.50;;;;;;;8.32;65.94;102146.75;5983289;28;20023;-67
2022/05/09 02:21:33;;;;;;;6.15;1.30;;;;;;;8.75;64.38;102133.44;5984746;28;20069;-69
2022/05/09 02:24:29;;;;;;;5.05;1.60;;;;;;;8.70;63.45;102139.00;5983480;28;20102;-65
2022/05/09 02:27:25;;;;;;;5.97;1.60;;;;;;;8.28;63.83;102139.97;5993719;28;20510;-65
2022/05/09 02:30:20;;;;;;;2.92;1.35;;;;;;;8.14;64.93;102131.16;5983488;28;20046;-68
2022/05/09 02:33:16;;;;;;;5.53;1.83;;;;;;;8.10;64.07;102140.22;5988049;28;20039;-67
2022/05/09 02:36:11;;;;;;;6.30;1.70;;;;;;;8.34;65.34;102141.38;5992064;28;20030;-67
2022/05/09 02:39:07;;;;;;;7.22;1.88;;;;;;;8.26;64.48;102128.59;5986903;28;20046;-68
2022/05/09 02:42:03;;;;;;;4.03;1.58;;;;;;;8.05;63.98;102132.56;5987207;28;20034;-66
2022/05/09 02:44:58;;;;;;;6.25;1.80;;;;;;;7.80;65.91;102142.94;5992844;28;20023;-66
2022/05/09 02:47:53;;;;;;;3.53;1.53;;;;;;;7.76;65.85;102128.22;5986313;28;20050;-67
2022/05/09 02:50:49;;;;;;;10.32;2.10;;;;;;;7.80;65.91;102130.59;5983188;28;20031;-67
2022/05/09 02:53:44;;;;;;;5.13;1.70;;;;;;;7.86;65.41;102134.66;5994931;28;20042;-67
2022/05/09 02:56:39;;;;;;;4.60;1.60;;;;;;;8.03;66.22;102134.47;5984880;28;20096;-68
2022/05/09 02:59:35;;;;;;;6.23;1.80;;;;;;;7.89;66.46;102133.59;5999873;28;20045;-65
2022/05/09 03:02:30;;;;;;;6.83;1.83;;;;;;;7.66;66.01;102132.38;5990816;28;20287;-67
2022/05/09 03:05:25;;;;;;;4.70;1.67;;;;;;;7.38;66.24;102133.16;5985400;28;20081;-68
2022/05/09 03:08:21;;;;;;;3.97;2.07;;;;;;;7.59;67.91;102120.47;5991642;28;20117;-66
2022/05/09 03:11:16;;;;;;;6.53;1.50;;;;;;;7.54;66.52;102133.09;5981409;28;20035;-68
2022/05/09 03:14:11;;;;;;;9.97;2.23;;;;;;;7.47;66.98;102124.72;5996003;28;20089;-67
2022/05/09 03:17:08;;;;;;;2.77;1.33;;;;;;;7.45;67.11;102131.00;5988036;28;20037;-67
2022/05/09 03:20:03;;;;;;;5.60;1.70;;;;;;;7.41;67.16;102133.00;5982528;28;20550;-66
2022/05/09 03:22:59;;;;;;;7.53;1.90;;;;;;;7.51;68.04;102138.56;5991507;28;20023;-66
2022/05/09 03:25:55;;;;;;;8.87;1.50;;;;;;;7.36;66.55;102129.78;5989931;28;20703;-65
2022/05/09 03:28:50;;;;;;;5.57;1.50;;;;;;;7.36;66.80;102123.66;5985954;28;20058;-66
2022/05/09 03:31:47;;;;;;;8.43;1.77;;;;;;;7.04;67.76;102131.63;5981949;28;20035;-66
2022/05/09 03:34:43;;;;;;;7.85;2.00;;;;;;;6.98;67.73;102123.25;5984687;28;20031;-65
2022/05/09 03:37:39;;;;;;;10.57;3.97;;;;;;;7.05;68.48;102114.88;5979483;28;20402;-66
2022/05/09 03:40:34;;;;;;;3.33;1.52;;;;;;;7.03;68.06;102127.31;5978012;28;20402;-68
2022/05/09 03:43:29;;;;;;;7.15;2.03;;;;;;;7.11;68.98;102121.59;5983041;28;20046;-65
2022/05/09 03:46:25;;;;;;;6.47;1.80;;;;;;;7.19;67.85;102128.13;5982843;28;20047;-67
2022/05/09 03:49:20;;;;;;;7.73;1.67;;;;;;;7.09;68.81;102121.66;5981845;28;20069;-66
2022/05/09 03:52:15;;;;;;;5.17;1.80;;;;;;;7.20;68.40;102139.53;5986434;28;20837;-67
2022/05/09 03:55:12;;;;;;;4.63;2.30;;;;;;;7.41;68.53;102135.63;5990334;28;20050;-66
2022/05/09 03:58:07;;;;;;;6.20;1.65;;;;;;;7.41;69.27;102137.41;5988857;28;20050;-66
2022/05/09 04:01:03;;;;;;;5.00;1.98;;;;;;;7.50;68.68;102128.97;5989835;28;20035;-66
2022/05/09 04:03:59;;;;;;;6.67;1.70;;;;;;;7.16;68.50;102127.44;5991007;28;20031;-68
2022/05/09 04:06:54;;;;;;;4.78;1.60;;;;;;;6.91;70.19;102127.16;5981018;28;20043;-66
2022/05/09 04:09:50;;;;;;;4.07;2.20;;;;;;;7.30;70.48;102124.88;5983771;28;20155;-68
2022/05/09 04:12:46;;;;;;;6.35;2.05;;;;;;;7.23;69.04;102123.50;5981138;28;20039;-66
2022/05/09 04:18:59;;;;;;;4.75;2.42;;;;;;;7.49;68.11;102121.97;5981795;28;20035;-66
2022/05/09 04:21:54;;;;;;;7.65;2.10;;;;;;;7.46;67.40;102116.88;5982070;28;20074;-67
2022/05/09 04:24:50;;;;;;;6.90;1.90;;;;;;;7.57;68.07;102122.38;5982160;28;20035;-66
2022/05/09 04:27:46;;;;;;;4.07;2.03;;;;;;;7.60;68.09;102122.19;5987973;28;20043;-67
2022/05/09 04:30:41;;;;;;;10.30;2.60;;;;;;;8.02;67.50;102121.34;5980254;28;20502;-68
2022/05/09 04:33:36;;;;;;;5.83;2.00;;;;;;;8.36;65.55;102124.47;5992670;28;20042;-66
2022/05/09 04:36:32;;;;;;;4.50;1.77;;;;;;;8.35;66.48;102125.41;5981621;28;20047;-66
2022/05/09 04:39:28;;;;;;;7.18;1.98;;;;;;;8.58;65.03;102139.81;5972046;28;20035;-66
2022/05/09 04:42:23;;;;;;;6.83;1.80;;;;;;;8.51;64.99;102127.06;5982967;28;20065;-67
2022/05/09 04:45:19;;;;;;;6.50;1.73;;;;;;;8.79;65.51;102137.56;5980298;28;20274;-67
2022/05/09 04:48:19;;;;;;;6.13;1.92;;;;;;;8.80;63.80;102134.00;5979856;28;20058;-66
2022/05/09 04:51:15;;;;;;;6.03;2.17;;;;;;;8.92;64.15;102135.81;5980434;28;20491;-68
2022/05/09 04:54:11;;;;;;;10.00;1.98;;;;;;;9.03;63.40;102125.38;5979938;28;20077;-66
2022/05/09 04:57:06;;;;;;;4.33;1.63;;;;;;;9.37;63.10;102134.56;5980873;28;20463;-67
2022/05/09 05:00:03;;;;;;;11.30;2.30;;;;;;;10.07;60.60;102130.56;5980220;28;20085;-65
2022/05/09 05:02:59;;;;;;;10.07;1.92;;;;;;;9.93;60.70;102134.19;5980754;28;20027;-68
2022/05/09 05:05:54;;;;;;;6.50;1.67;;;;;;;10.63;59.58;102134.47;5980189;28;20042;-67
2022/05/09 05:08:50;;;;;;;4.70;1.70;;;;;;;9.62;62.08;102128.47;5992323;28;20275;-68
2022/05/09 05:11:45;;;;;;;5.03;1.70;;;;;;;9.37;63.38;102134.56;5980613;28;20039;-67
2022/05/09 05:14:40;;;;;;;5.70;1.63;;;;;;;9.86;62.28;102140.03;5979571;28;20039;-66
2022/05/09 05:17:36;;;;;;;7.07;1.77;;;;;;;10.11;60.53;102137.31;5984220;28;20090;-66
2022/05/09 05:20:31;;;;;;;9.27;2.10;;;;;;;9.78;61.57;102132.59;5979322;28;20513;-66
2022/05/09 05:23:27;;;;;;;4.37;1.67;;;;;;;9.58;63.40;102141.91;5980090;28;20032;-67
2022/05/09 05:26:22;;;;;;;5.30;2.13;;;;;;;10.21;61.59;102138.44;5979640;28;20043;-66
2022/05/09 05:29:18;;;;;;;8.07;1.90;;;;;;;10.65;60.40;102133.41;5980172;28;20054;-65
2022/05/09 05:32:14;;;;;;;6.15;1.65;;;;;;;9.90;63.22;102144.13;5978379;28;20387;-67
2022/05/09 05:35:19;;;;;;;9.10;2.15;;;;;;;10.00;62.31;102140.72;5988365;28;20046;-66
2022/05/09 05:38:14;;;;;;;5.65;1.95;;;;;;;11.53;59.02;102137.41;5989345;28;20721;-67
2022/05/09 05:41:10;;;;;;;8.07;2.20;;;;;;;10.89;60.53;102141.41;5988899;28;20097;-66
2022/05/09 05:44:08;;;;;;;6.20;1.80;;;;;;;11.70;57.64;102134.34;6000884;28;20110;-66
2022/05/09 05:47:09;;;;;;;4.75;2.03;;;;;;;11.31;60.14;102138.19;5986889;28;20041;-66
2022/05/09 05:50:06;;;;;;;6.45;1.88;;;;;;;11.38;59.34;102132.44;5987127;28;20042;-64
2022/05/09 05:53:01;;;;;;;10.38;2.30;;;;;;;11.46;60.32;102143.31;5987691;28;20063;-65
2022/05/09 05:55:57;;;;;;;5.90;2.00;;;;;;;12.20;58.32;102134.88;5986811;28;20056;-67
2022/05/09 05:58:52;;;;;;;9.38;1.98;;;;;;;12.64;57.42;102132.13;5991083;28;20297;-66
2022/05/09 06:01:47;;;;;;;8.77;2.33;;;;;;;12.64;57.11;102132.13;5989536;28;20376;-67
2022/05/09 06:04:43;;;;;;;5.63;2.27;;;;;;;12.61;57.69;102120.91;5994994;28;20402;-66
2022/05/09 06:07:38;;;;;;;7.18;2.50;;;;;;;12.75;56.75;102140.09;5985736;28;20037;-66
2022/05/09 06:10:34;;;;;;;11.02;2.28;;;;;;;12.61;58.12;102129.72;5998783;28;20042;-66
2022/05/09 06:13:29;;;;;;;7.93;2.33;;;;;;;13.43;54.87;102122.88;5985011;28;20046;-65
2022/05/09 06:16:25;;;;;;;9.20;2.80;;;;;;;13.30;56.16;102138.22;5986507;28;20046;-65
2022/05/09 06:19:21;;;;;;;9.20;2.53;;;;;;;13.57;54.66;102127.91;5975296;28;20032;-65
2022/05/09 06:22:16;;;;;;;7.57;2.25;;;;;;;13.67;54.66;102123.47;5982000;28;20130;-67
2022/05/09 06:25:13;;;;;;;6.47;1.93;;;;;;;13.51;55.12;102123.09;5985331;28;20039;-66
2022/05/09 06:28:09;;;;;;;10.45;2.45;;;;;;;13.58;54.95;102124.28;5988549;28;20105;-67
2022/05/09 06:31:05;;;;;;;10.63;2.05;;;;;;;14.13;53.71;102131.03;5985925;28;20037;-64
2022/05/09 06:34:02;;;;;;;7.65;2.13;;;;;;;14.00;54.34;102135.72;5986179;28;20541;-64
2022/05/09 06:36:57;;;;;;;13.00;2.38;;;;;;;13.82;54.18;102126.66;5996431;28;20074;-67
2022/05/09 06:39:53;;;;;;;9.73;2.40;;;;;;;14.35;53.86;102117.50;5986113;28;20037;-66
2022/05/09 06:42:51;;;;;;;9.77;2.53;;;;;;;14.71;52.35;102129.38;5988978;28;20042;-66
2022/05/09 06:45:46;;;;;;;8.68;2.45;;;;;;;13.94;54.55;102129.09;5992033;28;20023;-64
2022/05/09 06:48:41;;;;;;;7.07;2.30;;;;;;;15.06;51.64;102120.81;5987260;28;20089;-67
2022/05/09 06:51:36;;;;;;;7.73;2.50;;;;;;;14.88;50.64;102118.88;5987331;28;20035;-66
2022/05/09 06:54:32;;;;;;;9.23;2.50;;;;;;;14.62;51.66;102127.56;5983252;28;20045;-66
2022/05/09 06:57:27;;;;;;;6.47;2.53;;;;;;;15.03;52.25;102118.47;5985868;28;20047;-66
2022/05/09 07:00:24;;;;;;;10.23;2.43;;;;;;;14.91;51.02;102123.09;5982019;28;20114;-68
2022/05/09 07:03:20;;;;;;;8.95;2.42;;;;;;;13.90;53.60;102126.81;5986169;28;20278;-64
2022/05/09 07:06:16;;;;;;;8.63;2.47;;;;;;;14.65;53.31;102132.59;5981226;28;20118;-66
2022/05/09 07:09:12;;;;;;;9.90;3.00;;;;;;;15.47;49.87;102126.75;5981495;28;20043;-65
2022/05/09 07:12:08;;;;;;;7.00;2.10;;;;;;;15.88;49.09;102130.03;5981351;28;20510;-65
2022/05/09 07:15:05;;;;;;;9.05;2.20;;;;;;;15.68;49.48;102129.25;5982275;28;20039;-68
2022/05/09 07:18:00;;;;;;;9.10;2.38;;;;;;;15.79;48.84;102128.25;5976645;28;20030;-65
2022/05/09 07:20:56;;;;;;;8.82;2.15;;;;;;;14.96;51.45;102139.53;5981426;28;20467;-67
2022/05/09 07:23:52;;;;;;;10.30;2.53;;;;;;;15.24;50.49;102137.88;5982294;28;20479;-67
2022/05/09 07:26:47;;;;;;;10.63;3.30;;;;;;;16.07;48.86;102127.28;5981807;28;20042;-65
2022/05/09 07:29:42;;;;;;;10.57;2.50;;;;;;;15.89;49.10;102126.38;5982104;28;20030;-65
2022/05/09 07:32:38;;;;;;;6.50;2.50;;;;;;;16.44;48.12;102124.59;5974305;28;20077;-66
2022/05/09 07:35:33;;;;;;;8.73;2.40;;;;;;;15.46;50.36;102129.59;5982026;28;20070;-65
2022/05/09 07:38:29;;;;;;;10.98;2.40;;;;;;;16.43;47.29;102130.94;5981531;28;20035;-67
2022/05/09 07:41:24;;;;;;;7.17;2.47;;;;;;;16.36;47.51;102117.28;5980814;28;20554;-66
2022/05/09 07:44:19;;;;;;;12.20;2.80;;;;;;;16.56;47.62;102126.09;5981723;28;20538;-65
2022/05/09 07:47:15;;;;;;;6.27;2.13;;;;;;;16.49;47.31;102131.19;5980793;28;20286;-65
2022/05/09 07:50:11;;;;;;;4.70;2.40;;;;;;;16.08;48.50;102120.97;5981018;28;20035;-66
2022/05/09 07:53:10;;;;;;;8.45;2.20;;;;;;;16.53;47.19;102131.75;5981688;28;20086;-67
2022/05/09 07:56:06;;;;;;;6.03;2.35;;;;;;;16.85;46.50;102129.41;5981183;28;20102;-65
2022/05/09 07:59:02;;;;;;;12.10;2.40;;;;;;;16.63;46.69;102129.88;5980898;28;20039;-67
2022/05/09 08:01:57;;;;;;;9.40;2.47;;;;;;;17.20;46.39;102125.91;5975779;28;20043;-65
2022/05/09 08:04:52;;;;;;;6.93;2.30;;;;;;;17.68;44.21;102133.53;5981231;28;20372;-66
2022/05/09 08:07:49;;;;;;;9.30;2.47;;;;;;;17.37;45.03;102130.41;5981260;28;20082;-66
2022/05/09 08:10:45;;;;;;;9.85;2.67;;;;;;;17.18;45.51;102133.25;5980312;28;20039;-67
2022/05/09 08:13:41;;;;;;;8.98;3.03;;;;;;;17.44;45.17;102138.69;5980186;28;20039;-66
2022/05/09 08:16:37;;;;;;;6.10;2.45;;;;;;;17.28;44.85;102126.81;5980412;28;20050;-67
2022/05/09 08:19:32;;;;;;;9.40;2.20;;;;;;;17.43;45.04;102127.09;5980954;28;20467;-66
2022/05/09 08:22:31;;;;;;;11.20;2.53;;;;;;;17.25;44.81;102120.94;5980032;28;20047;-67
2022/05/09 08:25:26;;;;;;;9.40;2.22;;;;;;;17.50;44.32;102121.97;5980650;28;20090;-67
2022/05/09 08:28:22;;;;;;;8.43;2.67;;;;;;;17.61;43.67;102129.81;5980090;28;20522;-67
2022/05/09 08:31:18;;;;;;;9.40;2.72;;;;;;;17.78;43.68;102120.84;5979811;28;20333;-65
2022/05/09 08:34:15;;;;;;;7.82;2.47;;;;;;;18.13;42.46;102125.22;5980103;28;20086;-66
2022/05/09 08:37:10;;;;;;;9.85;2.40;;;;;;;18.27;43.77;102117.41;5980351;28;20043;-67
2022/05/09 08:40:06;;;;;;;14.13;2.77;;;;;;;18.45;42.03;102114.63;5979655;28;20070;-66
2022/05/09 08:43:22;;;;;;;9.07;2.38;;;;;;;18.24;42.74;102122.25;5978184;29;20059;-65
2022/05/09 08:46:38;;;;;;;10.07;2.88;;;;;;;17.95;42.59;102128.00;5979988;28;20122;-65
2022/05/09 08:49:52;;;;;;;8.85;1.95;;;;;;;18.40;42.33;102117.78;5979523;28;20038;-67
2022/05/09 08:52:55;;;;;;;9.95;2.17;;;;;;;18.10;41.35;102112.16;5978374;28;20058;-65
2022/05/09 08:55:52;;;;;;;13.70;2.53;;;;;;;18.46;41.26;102108.25;5977290;28;20035;-65
2022/05/09 08:58:57;;;;;;;11.75;2.22;;;;;;;18.81;39.86;102115.25;5978823;28;20122;-67
2022/05/09 09:02:40;;;;;;;11.25;2.53;;;;;;;19.06;39.14;102121.50;5977209;28;20044;-66
2022/05/09 09:05:36;;;;;;;7.40;2.30;;;;;;;18.98;39.78;102109.75;5960076;29;20067;-66
2022/05/09 09:08:58;;;;;;;7.20;2.17;;;;;;;19.19;39.45;102103.00;5978507;28;20034;-65
2022/05/09 09:12:02;;;;;;;4.80;2.03;;;;;;;18.64;36.89;102100.09;5990842;28;20035;-65
2022/05/09 09:15:20;;;;;;;7.68;2.00;;;;;;;18.90;39.10;102109.72;5978479;28;20039;-65
2022/05/09 09:18:24;;;;;;;6.47;1.83;;;;;;;18.76;33.63;102101.47;5978092;28;20035;-65
2022/05/09 09:21:33;;;;;;;5.88;1.95;;;;;;;19.21;36.20;102090.25;5978863;28;20035;-65
2022/05/09 09:24:45;;;;;;;9.60;2.53;;;;;;;19.01;37.22;102095.97;5966414;28;20126;-66
2022/05/09 09:27:47;;;;;;;6.38;2.20;;;;;;;18.90;37.10;102098.97;5979552;28;20114;-67
2022/05/09 09:30:43;;;;;;;6.47;1.98;;;;;;;19.05;37.91;102095.63;5978875;28;20034;-67
2022/05/09 09:33:44;;;;;;;9.55;2.50;;;;;;;19.29;38.79;102098.31;5979436;28;20441;-67
2022/05/09 09:36:50;;;;;;;6.13;1.90;;;;;;;19.26;35.36;102093.28;5978261;29;20062;-66
2022/05/09 09:39:45;;;;;;;9.40;2.42;;;;;;;19.64;35.15;102078.28;5976498;29;20034;-66
2022/05/09 09:42:40;;;;;;;4.17;1.70;;;;;;;19.96;35.49;102075.50;5979198;28;20039;-66
2022/05/09 09:45:40;;;;;;;4.47;1.73;;;;;;;19.84;34.11;102072.31;5979349;28;20042;-65
2022/05/09 09:48:35;;;;;;;8.18;2.00;;;;;;;19.85;32.72;102067.78;5979166;28;20043;-66
2022/05/09 09:51:31;;;;;;;9.47;1.90;;;;;;;19.70;32.84;102062.31;5978578;28;20055;-66
2022/05/09 09:54:28;;;;;;;8.80;1.93;;;;;;;20.03;31.74;102058.47;5994116;28;20031;-66
2022/05/09 09:57:28;;;;;;;6.50;1.45;;;;;;;20.32;32.01;102057.03;5967252;28;20039;-66
2022/05/09 10:00:35;;;;;;;6.07;1.98;;;;;;;20.08;32.20;102048.00;5978426;28;20033;-67
2022/05/09 10:03:31;;;;;;;7.65;2.00;;;;;;;19.62;33.05;102054.25;5978900;28;20443;-66
2022/05/09 10:06:27;;;;;;;5.22;1.48;;;;;;;20.00;32.71;102042.66;5979170;28;20114;-67
2022/05/09 10:09:23;;;;;;;6.57;1.65;;;;;;;20.37;32.42;102054.63;5979862;28;20094;-66
2022/05/09 10:12:22;;;;;;;6.80;1.80;;;;;;;20.47;32.13;102041.75;5969622;28;20035;-67
2022/05/09 10:15:45;;;;;;;5.97;1.70;;;;;;;20.50;31.16;102041.41;5979507;28;20094;-65
2022/05/09 10:18:42;;;;;;;4.90;2.08;;;;;;;20.17;29.95;102036.19;5978430;28;20471;-67
2022/05/09 10:24:57;;;;;;;6.95;1.70;;;;;;;20.54;29.43;102016.63;5978140;28;20039;-66
2022/05/09 10:28:16;;;;;;;8.93;1.70;;;;;;;20.35;30.52;102027.03;5972039;28;20475;-66
2022/05/09 10:31:27;;;;;;;6.15;1.95;;;;;;;20.19;30.19;102015.28;5981951;28;20047;-66
2022/05/09 10:34:26;;;;;;;6.93;1.92;;;;;;;19.95;30.54;102020.78;5983002;28;20050;-67
2022/05/09 10:37:26;;;;;;;5.95;1.73;;;;;;;19.98;30.09;102003.44;5987968;28;20450;-66
2022/05/09 10:40:37;;;;;;;5.65;1.33;;;;;;;20.25;30.50;102013.78;5982308;28;20042;-66
2022/05/09 10:43:36;;;;;;;4.45;1.52;;;;;;;20.36;30.35;102002.59;5997982;28;20035;-67
2022/05/09 10:46:43;;;;;;;6.95;1.63;;;;;;;20.22;30.86;102011.38;5981261;28;20388;-67
2022/05/09 10:49:48;;;;;;;5.38;1.65;;;;;;;20.57;30.21;102001.97;5977850;28;20502;-66
2022/05/09 10:52:50;;;;;;;3.30;1.50;;;;;;;21.39;28.75;102005.63;5982574;28;20166;-66
2022/05/09 10:56:13;;;;;;;4.20;1.58;;;;;;;21.29;29.10;101997.78;5981583;28;20039;-65
2022/05/09 10:59:39;;;;;;;5.63;1.83;;;;;;;21.13;28.70;101988.00;5994658;28;20094;-67
2022/05/09 11:02:41;;;;;;;5.05;1.30;;;;;;;20.81;29.36;101990.13;5985281;28;20043;-67
2022/05/09 11:05:46;;;;;;;5.50;1.50;;;;;;;20.77;29.66;101978.88;5980826;28;20502;-65
2022/05/09 11:09:23;;;;;;;6.32;1.65;;;;;;;20.69;29.33;101982.47;6008659;28;20067;-66
2022/05/09 11:12:55;;;;;;;5.97;1.50;;;;;;;20.50;29.83;101984.81;5996202;28;20490;-67
2022/05/09 11:16:06;;;;;;;4.80;1.70;;;;;;;20.73;29.50;101980.25;5981709;28;20045;-66
2022/05/09 11:19:17;;;;;;;6.50;1.38;;;;;;;20.90;30.09;101983.66;5986332;28;20529;-67
2022/05/09 11:22:31;;;;;;;7.30;1.40;;;;;;;21.30;28.84;101973.34;5968639;28;20031;-67
2022/05/09 11:25:48;;;;;;;6.07;1.52;;;;;;;21.06;29.02;101968.13;5981235;28;20170;-66
2022/05/09 11:28:56;;;;;;;5.88;1.50;;;;;;;21.07;29.34;101966.31;5988845;28;20114;-67
2022/05/09 11:32:26;;;;;;;6.18;1.75;;;;;;;20.76;29.25;101958.34;5980169;28;20043;-66
2022/05/09 11:35:34;;;;;;;5.32;1.30;;;;;;;21.05;29.11;101955.69;5977449;29;20043;-66
2022/05/09 11:38:39;;;;;;;3.40;1.30;;;;;;;21.07;30.03;101948.28;5984864;28;20042;-66
2022/05/09 11:41:46;;;;;;;3.55;1.17;;;;;;;21.84;29.25;101952.25;5977853;28;20027;-67
2022/05/09 11:44:47;;;;;;;7.35;1.60;;;;;;;21.64;29.28;101950.31;5983213;28;20047;-67
2022/05/09 11:48:05;;;;;;;3.67;1.27;;;;;;;21.23;29.37;101949.94;5980303;29;20038;-67
2022/05/09 11:51:26;;;;;;;4.45;1.13;;;;;;;21.58;30.12;101951.09;5980170;28;20511;-67
2022/05/09 11:54:29;;;;;;;5.18;1.20;;;;;;;21.41;29.91;101938.81;5981934;28;20121;-67
2022/05/09 11:57:35;;;;;;;4.45;1.20;;;;;;;21.99;29.74;101932.50;5980104;28;20121;-68
2022/05/09 12:00:33;;;;;;;4.35;1.70;;;;;;;22.11;29.40;101939.06;5981937;28;20118;-67
2022/05/09 12:03:51;;;;;;;6.18;1.80;;;;;;;22.04;28.79;101936.28;5981883;28;20372;-67
2022/05/09 12:06:46;;;;;;;4.32;1.48;;;;;;;22.24;29.20;101926.53;5982136;28;20594;-66
2022/05/09 12:09:54;;;;;;;5.57;1.67;;;;;;;22.38;29.38;101922.94;5983973;28;20043;-67
2022/05/09 12:12:55;;;;;;;4.75;1.50;;;;;;;22.15;29.25;101918.75;5985375;28;20077;-67
2022/05/09 12:15:54;;;;;;;5.10;1.65;;;;;;;21.76;29.94;101929.91;5980812;28;20039;-66
2022/05/09 12:18:55;;;;;;;5.50;1.63;;;;;;;22.13;30.19;101908.13;5985326;28;20063;-66
2022/05/09 12:22:28;;;;;;;5.07;1.50;;;;;;;22.57;30.01;101909.78;5981583;28;20488;-67
2022/05/09 12:25:36;;;;;;;7.93;2.00;;;;;;;21.80;31.14;101907.72;5981852;28;20058;-67
2022/05/09 12:28:34;;;;;;;6.63;2.17;;;;;;;21.65;31.02;101909.63;5984527;28;20572;-66
2022/05/09 12:31:29;;;;;;;4.15;1.60;;;;;;;21.67;31.39;101914.84;5979802;28;20047;-67
2022/05/09 12:34:34;;;;;;;3.77;1.50;;;;;;;22.11;30.66;101904.78;5980350;28;20494;-67
2022/05/09 12:37:29;;;;;;;6.00;1.73;;;;;;;22.33;30.65;101903.75;5973490;28;20037;-67
2022/05/09 12:40:25;;;;;;;8.30;1.93;;;;;;;22.57;30.69;101898.97;5984506;28;20479;-66
2022/05/09 12:43:21;;;;;;;7.70;1.85;;;;;;;21.93;31.05;101890.88;5972689;28;20067;-67
2022/05/09 12:46:21;;;;;;;5.80;1.65;;;;;;;22.80;30.66;101886.09;5978824;28;20332;-66
2022/05/09 12:49:19;;;;;;;6.05;1.90;;;;;;;23.12;29.97;101877.34;5984236;28;20127;-67
2022/05/09 12:52:21;;;;;;;4.55;2.03;;;;;;;22.75;30.45;101880.41;5983227;28;20039;-67
2022/05/09 12:58:36;;;;;;;5.50;1.63;;;;;;;23.43;29.26;101879.59;5983294;28;20031;-67
2022/05/09 13:01:32;;;;;;;4.75;1.60;;;;;;;23.41;29.83;101871.69;5979778;28;20058;-67
2022/05/09 13:04:32;;;;;;;6.65;1.70;;;;;;;22.75;30.36;101872.28;5979767;28;20023;-67
2022/05/09 13:07:27;;;;;;;7.07;2.10;;;;;;;22.24;31.23;101874.34;5974423;28;20043;-66
2022/05/09 13:10:23;;;;;;;7.60;2.03;;;;;;;21.99;31.79;101871.19;5980568;28;20043;-67
2022/05/09 13:13:25;;;;;;;5.88;1.75;;;;;;;22.03;31.64;101853.56;5983149;28;20514;-67
2022/05/09 13:16:23;;;;;;;8.27;2.00;;;;;;;22.27;31.24;101850.47;5978495;28;20063;-67
2022/05/09 13:19:20;;;;;;;7.15;1.55;;;;;;;22.53;31.08;101845.28;5976899;28;20023;-67
2022/05/09 13:22:23;;;;;;;5.55;1.80;;;;;;;22.66;31.24;101843.75;5980398;28;20097;-66
2022/05/09 13:25:27;;;;;;;5.35;1.70;;;;;;;22.84;30.62;101833.25;5980370;28;20166;-66
2022/05/09 13:28:23;;;;;;;5.97;1.90;;;;;;;23.09;30.88;101845.25;5979738;28;20467;-68
2022/05/09 13:31:33;;;;;;;6.32;1.95;;;;;;;22.80;31.28;101829.28;5978004;28;20085;-67
2022/05/09 13:34:34;;;;;;;7.97;1.80;;;;;;;22.12;31.77;101835.38;5980281;28;20082;-67
2022/05/09 13:37:34;;;;;;;7.60;2.15;;;;;;;22.55;31.67;101826.16;5978003;28;20042;-67
2022/05/09 13:40:31;;;;;;;4.95;1.65;;;;;;;22.53;31.24;101825.50;5970934;28;20046;-67
2022/05/09 13:43:30;;;;;;;5.82;1.90;;;;;;;22.75;31.48;101810.91;5984100;28;20030;-67
2022/05/09 13:46:34;;;;;;;6.55;1.70;;;;;;;22.96;31.59;101801.91;5978335;28;20038;-67
2022/05/09 13:49:30;;;;;;;5.32;1.98;;;;;;;23.02;30.97;101798.34;5978140;29;20035;-66
2022/05/09 13:52:31;;;;;;;5.93;2.28;;;;;;;23.03;31.14;101794.63;5978426;28;20042;-67
2022/05/09 13:55:30;;;;;;;12.45;2.83;;;;;;;22.42;31.25;101786.31;5977687;28;20031;-66
2022/05/09 13:58:28;;;;;;;9.98;2.40;;;;;;;22.84;31.06;101781.84;5979568;28;20047;-66
2022/05/09 14:01:24;;;;;;;5.93;2.00;;;;;;;23.10;30.76;101776.56;5988482;28;20143;-67
2022/05/09 14:04:21;;;;;;;8.40;2.13;;;;;;;24.09;29.33;101781.19;5980123;28;20043;-67
2022/05/09 14:10:43;;;;;;;7.30;1.73;;;;;;;23.52;30.31;101760.06;5983114;28;20031;-67
2022/05/09 14:13:38;;;;;;;6.18;2.00;;;;;;;23.84;30.26;101771.13;5980232;28;20054;-66